Time;durP1;ratioP1;P1;durP2;ratioP2;P2;SDS_P1;SDS_P2;PMS_P1;PMS_P2;Temp;Humidity;BMP_temperature;BMP_pressure;BME280_temperature;BME280_humidity;BME280_pressure;Samples;Min_cycle;Max_cycle;Signal;HPM_P1;HPM_P2
2022/08/02 00:01:43;;;;;;;4.90;1.70;;;13.50;99.90;;;;;;5024182;28;20127;-78
2022/08/02 00:04:09;;;;;;;4.55;1.77;;;13.70;99.90;;;;;;5044721;28;20457;-76
2022/08/02 00:06:34;;;;;;;4.95;1.50;;;13.50;99.90;;;;;;5040837;28;20037;-77
2022/08/02 00:09:00;;;;;;;6.70;1.98;;;14.30;99.90;;;;;;5042066;28;20033;-78
2022/08/02 00:11:26;;;;;;;6.05;1.50;;;14.30;99.90;;;;;;5024743;28;20068;-79
2022/08/02 00:13:54;;;;;;;2.90;1.70;;;13.50;99.90;;;;;;5042527;28;20090;-77
2022/08/02 00:16:20;;;;;;;10.50;1.65;;;13.50;99.90;;;;;;5024427;28;20044;-77
2022/08/02 00:18:45;;;;;;;6.65;1.95;;;13.40;99.90;;;;;;5042378;28;20392;-76
2022/08/02 00:21:11;;;;;;;12.43;2.22;;;13.40;99.90;;;;;;5042699;28;20049;-77
2022/08/02 00:23:36;;;;;;;13.43;2.97;;;13.40;99.90;;;;;;5039787;28;20060;-77
2022/08/02 00:26:02;;;;;;;7.78;2.22;;;13.40;99.90;;;;;;5039269;28;20053;-77
2022/08/02 00:28:28;;;;;;;7.22;2.00;;;13.30;99.90;;;;;;5039953;28;20068;-76
2022/08/02 00:30:54;;;;;;;8.05;2.40;;;13.40;99.90;;;;;;5041784;28;20049;-78
2022/08/02 00:33:20;;;;;;;6.80;2.40;;;13.40;99.90;;;;;;5042280;28;20130;-76
2022/08/02 00:35:46;;;;;;;6.70;1.77;;;13.30;99.90;;;;;;5040107;28;20092;-76
2022/08/02 00:38:12;;;;;;;6.80;1.85;;;13.30;99.90;;;;;;5038321;28;20044;-75
2022/08/02 00:40:39;;;;;;;5.30;1.90;;;13.30;99.90;;;;;;5040529;28;20056;-76
2022/08/02 00:43:09;;;;;;;6.32;2.20;;;13.30;99.90;;;;;;5044677;28;20119;-76
2022/08/02 00:45:38;;;;;;;5.82;2.05;;;13.30;99.90;;;;;;5029471;28;20115;-76
2022/08/02 00:48:05;;;;;;;5.65;1.90;;;13.20;99.90;;;;;;5038997;28;20060;-75
2022/08/02 00:50:32;;;;;;;6.25;1.75;;;13.30;99.90;;;;;;5020862;28;20065;-75
2022/08/02 00:52:58;;;;;;;6.90;2.08;;;13.20;99.90;;;;;;5046016;28;20041;-75
2022/08/02 00:55:24;;;;;;;5.07;1.65;;;13.20;99.90;;;;;;5039178;28;20061;-75
2022/08/02 00:57:50;;;;;;;7.47;2.05;;;13.20;99.90;;;;;;5046410;28;20552;-75
2022/08/02 01:00:17;;;;;;;7.35;1.98;;;13.20;99.90;;;;;;5038840;28;20116;-77
2022/08/02 01:02:42;;;;;;;6.15;1.80;;;13.20;99.90;;;;;;5046770;28;20081;-81
2022/08/02 01:05:08;;;;;;;3.72;1.63;;;13.60;99.90;;;;;;5038300;28;20470;-76
2022/08/02 01:07:34;;;;;;;6.22;2.20;;;13.20;99.90;;;;;;5029053;28;20400;-75
2022/08/02 01:09:59;;;;;;;7.25;2.00;;;13.20;99.90;;;;;;5020938;28;20456;-75
2022/08/02 01:12:26;;;;;;;4.82;1.90;;;13.10;99.90;;;;;;5037944;28;20136;-76
2022/08/02 01:14:57;;;;;;;7.72;1.77;;;13.10;99.90;;;;;;5029595;28;20376;-75
2022/08/02 01:17:29;;;;;;;8.90;2.10;;;13.10;99.90;;;;;;5046386;28;20130;-80
2022/08/02 01:20:06;;;;;;;5.85;1.83;;;13.10;99.90;;;;;;5020341;28;20060;-76
2022/08/02 01:22:43;;;;;;;8.63;2.55;;;13.00;99.90;;;;;;5020956;28;20104;-78
2022/08/02 01:25:49;;;;;;;7.18;1.83;;;13.00;99.90;;;;;;5027256;28;20044;-77
2022/08/02 01:28:30;;;;;;;4.78;1.40;;;13.00;99.90;;;;;;5044209;28;20053;-75
2022/08/02 01:31:34;;;;;;;6.32;1.95;;;13.00;99.90;;;;;;5005772;28;20065;-77
2022/08/02 01:34:05;;;;;;;6.97;1.67;;;13.00;99.90;;;;;;5014771;28;20052;-76
2022/08/02 01:36:37;;;;;;;8.75;1.88;;;13.00;99.90;;;;;;5045442;28;20400;-75
2022/08/02 01:39:04;;;;;;;7.45;1.90;;;13.00;99.90;;;;;;5029052;28;20480;-75
2022/08/02 01:41:32;;;;;;;10.00;2.00;;;13.00;99.90;;;;;;5026916;28;20052;-75
2022/08/02 01:43:59;;;;;;;5.10;2.00;;;13.00;99.90;;;;;;5023716;28;20029;-75
2022/08/02 01:46:29;;;;;;;15.52;3.53;;;13.00;99.90;;;;;;5030873;28;20049;-75
2022/08/02 01:48:56;;;;;;;6.32;1.60;;;12.90;99.90;;;;;;5041938;28;20038;-79
2022/08/02 01:54:13;;;;;;;6.72;1.85;;;12.90;99.90;;;;;;5040677;28;20138;-78
2022/08/02 01:56:40;;;;;;;5.40;1.58;;;12.90;99.90;;;;;;5042708;28;20049;-79
2022/08/02 01:59:10;;;;;;;11.23;2.15;;;13.80;99.90;;;;;;5027290;28;20048;-78
2022/08/02 02:01:36;;;;;;;4.57;1.73;;;13.60;99.90;;;;;;5044420;28;20469;-77
2022/08/02 02:04:05;;;;;;;6.20;1.77;;;12.90;99.90;;;;;;5044639;28;20049;-75
2022/08/02 02:06:32;;;;;;;8.18;2.45;;;12.90;99.90;;;;;;5044839;28;20076;-75
2022/08/02 02:08:58;;;;;;;11.02;2.17;;;12.90;99.90;;;;;;5044437;28;20124;-74
2022/08/02 02:11:25;;;;;;;4.57;1.58;;;12.90;99.90;;;;;;5010574;28;20048;-75
2022/08/02 02:13:51;;;;;;;7.97;2.15;;;12.90;99.90;;;;;;5044652;28;20432;-75
2022/08/02 02:16:18;;;;;;;5.97;1.80;;;12.90;99.90;;;;;;5044150;28;20116;-78
2022/08/02 02:18:47;;;;;;;6.88;1.98;;;12.90;99.90;;;;;;5042937;28;20079;-75
2022/08/02 02:21:13;;;;;;;6.00;1.83;;;12.90;99.90;;;;;;5041321;28;20049;-76
2022/08/02 02:23:39;;;;;;;7.32;2.13;;;12.90;99.90;;;;;;5041155;28;20034;-75
2022/08/02 02:26:06;;;;;;;6.80;1.95;;;13.50;99.90;;;;;;5044988;28;20234;-77
2022/08/02 02:28:36;;;;;;;5.80;2.08;;;13.90;99.90;;;;;;5044114;28;20033;-75
2022/08/02 02:31:12;;;;;;;3.13;1.58;;;12.90;99.90;;;;;;5023178;28;20045;-76
2022/08/02 02:33:45;;;;;;;9.43;2.25;;;12.90;99.90;;;;;;5007241;28;20133;-74
2022/08/02 02:36:14;;;;;;;6.63;1.77;;;12.90;99.90;;;;;;5047190;28;20049;-76
2022/08/02 02:38:41;;;;;;;5.95;2.20;;;12.90;99.90;;;;;;5041612;28;20489;-75
2022/08/02 02:41:08;;;;;;;4.45;1.75;;;12.90;99.90;;;;;;5026705;28;20041;-76
2022/08/02 02:43:37;;;;;;;8.48;1.75;;;12.90;99.90;;;;;;5025843;28;20072;-75
2022/08/02 02:46:05;;;;;;;6.38;1.80;;;13.40;99.90;;;;;;5040684;28;20140;-76
2022/08/02 02:48:31;;;;;;;4.70;1.98;;;13.70;99.90;;;;;;5022821;28;20052;-76
2022/08/02 02:50:58;;;;;;;8.18;2.50;;;13.70;99.90;;;;;;5025140;28;20037;-75
2022/08/02 02:53:24;;;;;;;7.68;2.80;;;12.80;99.90;;;;;;5046153;28;20172;-75
2022/08/02 02:55:50;;;;;;;10.48;2.38;;;12.80;99.90;;;;;;5043031;28;20048;-76
2022/08/02 02:58:17;;;;;;;7.25;1.85;;;12.80;99.90;;;;;;5043285;28;20045;-75
2022/08/02 03:03:28;;;;;;;9.48;2.83;;;12.80;99.90;;;;;;5025547;28;20052;-76
2022/08/02 03:05:54;;;;;;;12.35;2.85;;;12.80;99.90;;;;;;5040785;28;20053;-76
2022/08/02 03:08:19;;;;;;;10.50;2.38;;;12.80;99.90;;;;;;5040515;28;20647;-76
2022/08/02 03:10:46;;;;;;;7.60;1.95;;;12.90;99.90;;;;;;5040808;28;20045;-76
2022/08/02 03:13:12;;;;;;;6.93;2.03;;;12.90;99.90;;;;;;5025848;28;20040;-76
2022/08/02 03:15:39;;;;;;;8.98;2.47;;;13.40;99.90;;;;;;5043265;28;20123;-79
2022/08/02 03:18:07;;;;;;;7.28;2.53;;;12.80;99.90;;;;;;5042891;28;20048;-76
2022/08/02 03:20:33;;;;;;;6.85;2.40;;;12.90;99.90;;;;;;5043679;28;20055;-77
2022/08/02 03:22:59;;;;;;;9.10;3.22;;;12.90;99.90;;;;;;5008842;28;20043;-77
2022/08/02 03:25:24;;;;;;;8.43;2.60;;;12.90;99.90;;;;;;5042927;28;20044;-77
2022/08/02 03:27:50;;;;;;;8.77;2.63;;;12.80;99.90;;;;;;5025647;28;20041;-76
2022/08/02 03:30:16;;;;;;;6.70;2.25;;;13.10;99.90;;;;;;5025470;28;20053;-76
2022/08/02 03:32:45;;;;;;;9.40;2.40;;;12.80;99.90;;;;;;5042869;28;20448;-74
2022/08/02 03:35:14;;;;;;;6.35;2.42;;;12.80;99.90;;;;;;5023180;28;20041;-76
2022/08/02 03:37:40;;;;;;;10.93;2.92;;;12.80;99.90;;;;;;5048233;28;20521;-76
2022/08/02 03:40:07;;;;;;;7.32;2.10;;;12.90;99.90;;;;;;5039420;28;20057;-76
2022/08/02 03:42:33;;;;;;;9.27;2.33;;;12.90;99.90;;;;;;5047168;28;20452;-77
2022/08/02 03:45:01;;;;;;;4.80;2.05;;;12.90;99.90;;;;;;5025786;28;20124;-77
2022/08/02 03:47:28;;;;;;;5.82;2.05;;;13.50;99.90;;;;;;5042573;28;20029;-76
2022/08/02 03:49:54;;;;;;;8.45;3.28;;;13.70;99.90;;;;;;5041245;28;20123;-75
2022/08/02 03:52:22;;;;;;;6.07;1.95;;;12.90;99.90;;;;;;5045212;28;20064;-77
2022/08/02 03:54:47;;;;;;;14.38;2.67;;;13.10;99.90;;;;;;5008021;28;20053;-80
2022/08/02 03:57:13;;;;;;;8.38;2.00;;;12.90;99.90;;;;;;5043133;28;20485;-77
2022/08/02 03:59:44;;;;;;;8.55;2.50;;;12.80;99.90;;;;;;5043088;28;20037;-78
2022/08/02 04:02:10;;;;;;;8.30;2.55;;;12.80;99.90;;;;;;5038298;28;20056;-76
2022/08/02 04:04:36;;;;;;;5.90;2.55;;;12.80;99.90;;;;;;5039612;28;20533;-76
2022/08/02 04:07:03;;;;;;;7.85;2.65;;;13.20;99.90;;;;;;5047294;28;20046;-78
2022/08/02 04:09:29;;;;;;;9.82;2.72;;;13.60;99.90;;;;;;5039530;28;20072;-80
2022/08/02 04:11:55;;;;;;;5.93;2.47;;;13.40;99.90;;;;;;5047321;28;20040;-78
2022/08/02 04:14:21;;;;;;;6.10;1.95;;;12.80;99.90;;;;;;5021318;28;20045;-76
2022/08/02 04:16:53;;;;;;;5.93;2.03;;;12.80;99.90;;;;;;5048031;28;20403;-76
2022/08/02 04:19:28;;;;;;;8.25;2.72;;;12.80;99.90;;;;;;5039788;28;20382;-76
2022/08/02 04:21:56;;;;;;;11.07;3.45;;;12.90;99.90;;;;;;5046956;28;20037;-75
2022/08/02 04:24:31;;;;;;;8.07;2.65;;;13.30;99.90;;;;;;5021624;28;20049;-75
2022/08/02 04:26:58;;;;;;;7.55;2.95;;;13.80;99.90;;;;;;5042544;28;20060;-74
2022/08/02 04:29:25;;;;;;;8.15;3.08;;;12.90;99.90;;;;;;5042114;28;20044;-77
2022/08/02 04:31:53;;;;;;;6.32;2.17;;;12.90;99.90;;;;;;5041458;28;20048;-75
2022/08/02 04:34:19;;;;;;;8.73;2.97;;;12.90;99.90;;;;;;5040126;28;20087;-78
2022/08/02 04:36:46;;;;;;;7.88;2.92;;;13.00;99.90;;;;;;5022038;28;20076;-78
2022/08/02 04:39:13;;;;;;;9.55;3.05;;;13.00;99.90;;;;;;5047646;28;20044;-78
2022/08/02 04:41:41;;;;;;;7.32;3.00;;;13.00;99.90;;;;;;5029466;28;20045;-76
2022/08/02 04:44:07;;;;;;;10.57;3.35;;;13.00;99.90;;;;;;5021161;28;20041;-80
2022/08/02 04:46:34;;;;;;;6.75;2.70;;;13.00;99.90;;;;;;5039539;28;20124;-74
2022/08/02 04:49:00;;;;;;;5.88;2.97;;;13.00;99.90;;;;;;5041780;28;20108;-77
2022/08/02 04:51:26;;;;;;;11.13;3.47;;;13.00;99.90;;;;;;5044678;28;20128;-78
2022/08/02 04:53:51;;;;;;;10.07;3.72;;;13.00;99.90;;;;;;5040055;28;20081;-76
2022/08/02 04:56:17;;;;;;;11.25;4.03;;;13.00;99.90;;;;;;5042084;28;20045;-75
2022/08/02 04:58:42;;;;;;;13.00;4.03;;;13.00;99.90;;;;;;5042286;28;20053;-76
2022/08/02 05:01:08;;;;;;;10.38;3.63;;;13.00;99.90;;;;;;5025358;28;20448;-77
2022/08/02 05:03:34;;;;;;;8.15;3.67;;;13.00;99.90;;;;;;5041638;28;20122;-76
2022/08/02 05:05:59;;;;;;;8.52;3.75;;;14.10;99.90;;;;;;5044362;28;20048;-76
2022/08/02 05:08:25;;;;;;;10.18;3.35;;;13.10;99.90;;;;;;5046536;28;20049;-76
2022/08/02 05:10:51;;;;;;;8.98;2.97;;;13.80;99.90;;;;;;5044947;28;20052;-76
2022/08/02 05:13:17;;;;;;;9.00;3.65;;;13.50;99.90;;;;;;5025169;28;20037;-77
2022/08/02 05:15:43;;;;;;;10.75;3.70;;;13.10;99.90;;;;;;5033504;28;20072;-75
2022/08/02 05:18:09;;;;;;;11.27;3.92;;;13.20;99.90;;;;;;5045833;28;20037;-75
2022/08/02 05:20:34;;;;;;;9.40;3.80;;;13.20;99.90;;;;;;5046241;28;20497;-76
2022/08/02 05:23:00;;;;;;;9.13;3.70;;;13.30;99.90;;;;;;5028192;28;20040;-74
2022/08/02 05:25:26;;;;;;;10.77;3.25;;;14.30;99.90;;;;;;5011391;28;20045;-76
2022/08/02 05:27:51;;;;;;;8.52;3.45;;;13.30;99.90;;;;;;5045880;28;20118;-78
2022/08/02 05:30:17;;;;;;;9.10;3.45;;;13.40;99.90;;;;;;5045978;28;20045;-79
2022/08/02 05:32:45;;;;;;;7.03;3.55;;;14.00;99.90;;;;;;5028451;28;20056;-76
2022/08/02 05:35:10;;;;;;;10.55;3.63;;;13.50;99.90;;;;;;5032884;28;20116;-76
2022/08/02 05:37:36;;;;;;;9.27;3.53;;;14.20;99.90;;;;;;5042536;28;20128;-79
2022/08/02 05:40:03;;;;;;;7.85;3.45;;;13.60;99.90;;;;;;5043455;28;20045;-78
2022/08/02 05:42:32;;;;;;;11.50;3.42;;;13.70;99.90;;;;;;5045895;28;20098;-77
2022/08/02 05:44:57;;;;;;;11.55;3.90;;;13.70;99.90;;;;;;5044487;28;20047;-78
2022/08/02 05:47:24;;;;;;;6.72;2.83;;;14.00;99.90;;;;;;5041989;28;20049;-76
2022/08/02 05:49:50;;;;;;;6.03;3.10;;;13.80;99.90;;;;;;5042451;28;20118;-77
2022/08/02 05:52:18;;;;;;;9.75;3.20;;;14.10;99.90;;;;;;5045753;28;20819;-77
2022/08/02 05:54:48;;;;;;;7.45;3.30;;;13.90;99.90;;;;;;5027162;28;20044;-76
2022/08/02 05:57:25;;;;;;;6.80;2.75;;;13.90;99.90;;;;;;5045639;28;20628;-74
2022/08/02 06:00:11;;;;;;;7.68;3.72;;;14.00;99.90;;;;;;5044864;28;20456;-76
2022/08/02 06:02:43;;;;;;;12.40;2.95;;;14.10;99.90;;;;;;5031951;28;20489;-74
2022/08/02 06:05:19;;;;;;;11.98;3.22;;;14.10;99.90;;;;;;5029987;28;20525;-78
2022/08/02 06:07:48;;;;;;;10.63;2.85;;;14.10;99.90;;;;;;5045887;28;20494;-80
2022/08/02 06:10:15;;;;;;;5.93;2.83;;;14.90;99.90;;;;;;5049640;28;20122;-80
2022/08/02 06:12:53;;;;;;;6.57;2.22;;;14.30;99.90;;;;;;5030915;28;20098;-75
2022/08/02 06:15:19;;;;;;;6.32;2.50;;;14.30;99.90;;;;;;5042421;28;20439;-77
2022/08/02 06:17:45;;;;;;;7.90;2.42;;;15.10;99.90;;;;;;5030789;28;20048;-75
2022/08/02 06:20:12;;;;;;;12.55;3.58;;;14.50;99.90;;;;;;5027179;28;20123;-78
2022/08/02 06:22:42;;;;;;;8.95;2.90;;;14.70;99.90;;;;;;5026639;28;20053;-76
2022/08/02 06:25:10;;;;;;;9.85;2.78;;;14.60;99.90;;;;;;5045063;28;20444;-77
2022/08/02 06:27:36;;;;;;;10.52;2.60;;;14.70;99.90;;;;;;5044997;28;20052;-75
2022/08/02 06:30:04;;;;;;;5.88;2.70;;;14.80;99.90;;;;;;5045286;28;20037;-78
2022/08/02 06:32:31;;;;;;;6.75;2.47;;;14.90;99.90;;;;;;5044561;28;20377;-76
2022/08/02 06:34:56;;;;;;;11.93;2.90;;;15.00;99.90;;;;;;5026283;28;20041;-76
2022/08/02 06:37:49;;;;;;;9.95;2.88;;;15.60;99.90;;;;;;5044573;28;20048;-75
2022/08/02 06:40:38;;;;;;;8.65;2.42;;;15.20;99.90;;;;;;5026625;28;20080;-75
2022/08/02 06:43:15;;;;;;;11.23;2.70;;;15.20;99.90;;;;;;5042410;28;20492;-75
2022/08/02 06:45:41;;;;;;;6.50;2.60;;;15.20;99.90;;;;;;5047276;28;20082;-77
2022/08/02 06:48:07;;;;;;;10.02;2.28;;;16.10;99.90;;;;;;5043164;28;20565;-75
2022/08/02 06:50:34;;;;;;;5.05;2.45;;;15.30;99.90;;;;;;5022361;28;20057;-75
2022/08/02 06:53:08;;;;;;;9.05;2.45;;;15.40;99.90;;;;;;5042671;28;20037;-74
2022/08/02 06:55:33;;;;;;;10.48;2.92;;;15.50;99.90;;;;;;5045757;28;20041;-75
2022/08/02 06:57:59;;;;;;;8.88;2.58;;;15.50;99.90;;;;;;5043077;28;20044;-74
2022/08/02 07:00:26;;;;;;;8.23;2.47;;;15.60;99.90;;;;;;5040664;28;20172;-75
2022/08/02 07:02:52;;;;;;;6.93;2.30;;;15.70;99.90;;;;;;5047104;28;20098;-75
2022/08/02 07:05:18;;;;;;;8.30;2.30;;;15.80;99.90;;;;;;5026348;28;20045;-75
2022/08/02 07:07:44;;;;;;;7.43;2.67;;;16.30;99.90;;;;;;5026408;28;20041;-75
2022/08/02 07:10:12;;;;;;;5.90;2.53;;;15.90;99.90;;;;;;5043243;28;20041;-77
2022/08/02 07:12:38;;;;;;;5.05;1.92;;;16.00;99.90;;;;;;5043558;28;20040;-75
2022/08/02 07:15:06;;;;;;;4.47;1.45;;;16.10;99.90;;;;;;5043091;28;20439;-74
2022/08/02 07:17:32;;;;;;;10.82;2.25;;;16.10;99.90;;;;;;5040066;28;20037;-76
2022/08/02 07:19:59;;;;;;;6.25;1.40;;;16.20;99.90;;;;;;5022775;28;20154;-76
2022/08/02 07:22:25;;;;;;;5.57;1.60;;;16.20;99.90;;;;;;5013948;28;20124;-75
2022/08/02 07:24:53;;;;;;;9.90;2.15;;;16.30;99.90;;;;;;5046793;28;20484;-74
2022/08/02 07:27:20;;;;;;;5.60;1.27;;;16.80;99.90;;;;;;5041040;28;20045;-75
2022/08/02 07:29:45;;;;;;;5.07;1.30;;;16.40;99.90;;;;;;5019244;28;20037;-75
2022/08/02 07:32:11;;;;;;;5.95;1.77;;;16.40;99.90;;;;;;5041085;28;20084;-74
2022/08/02 07:34:36;;;;;;;4.57;1.45;;;16.50;99.90;;;;;;5043762;28;20041;-75
2022/08/02 07:37:02;;;;;;;5.55;1.33;;;16.60;99.90;;;;;;5043135;28;20052;-76
2022/08/02 07:39:28;;;;;;;6.43;1.35;;;17.20;99.90;;;;;;5040261;28;20037;-76
2022/08/02 07:41:54;;;;;;;2.53;0.80;;;16.70;99.90;;;;;;5047053;28;20045;-75
2022/08/02 07:44:20;;;;;;;8.27;1.20;;;16.80;99.90;;;;;;5026426;28;20116;-75
2022/08/02 07:46:46;;;;;;;5.13;1.85;;;16.90;99.90;;;;;;5043168;28;20060;-77
2022/08/02 07:49:17;;;;;;;2.35;0.88;;;17.10;99.90;;;;;;5042419;28;20341;-76
2022/08/02 07:51:44;;;;;;;5.80;1.27;;;17.10;99.90;;;;;;5044479;28;20045;-75
2022/08/02 07:54:10;;;;;;;4.55;1.13;;;17.10;99.90;;;;;;5025842;28;20041;-77
2022/08/02 07:56:36;;;;;;;3.45;0.93;;;17.20;99.90;;;;;;5008985;28;20454;-76
2022/08/02 07:59:02;;;;;;;6.93;0.90;;;17.30;99.90;;;;;;5042896;28;20044;-76
2022/08/02 08:01:28;;;;;;;5.32;0.88;;;17.40;99.90;;;;;;5029587;28;20328;-76
2022/08/02 08:03:53;;;;;;;1.67;0.82;;;17.50;99.90;;;;;;5021617;28;20053;-76
2022/08/02 08:06:19;;;;;;;2.70;0.60;;;17.50;99.90;;;;;;5047411;28;20128;-77
2022/08/02 08:08:45;;;;;;;7.03;0.93;;;17.60;99.90;;;;;;5039523;28;20392;-77
2022/08/02 08:11:10;;;;;;;5.53;0.77;;;17.70;99.90;;;;;;5040341;28;20038;-76
2022/08/02 08:13:36;;;;;;;6.63;0.93;;;17.80;99.90;;;;;;5024402;28;20508;-76
2022/08/02 08:16:05;;;;;;;3.45;0.95;;;17.80;99.90;;;;;;5043729;28;20049;-76
2022/08/02 08:18:31;;;;;;;2.92;0.70;;;17.90;99.90;;;;;;5042236;28;20112;-76
2022/08/02 08:20:56;;;;;;;5.13;0.68;;;18.00;99.90;;;;;;5042767;28;20124;-77
2022/08/02 08:23:23;;;;;;;3.22;0.57;;;18.10;99.90;;;;;;5040317;28;20048;-77
2022/08/02 08:25:48;;;;;;;3.53;0.80;;;18.10;99.90;;;;;;5038954;28;20404;-77
2022/08/02 08:28:14;;;;;;;2.58;0.95;;;18.60;99.90;;;;;;5040311;28;20038;-76
2022/08/02 08:30:41;;;;;;;3.65;0.80;;;18.30;99.90;;;;;;5042715;28;20036;-78
2022/08/02 08:33:07;;;;;;;1.75;0.50;;;18.40;99.90;;;;;;5043364;28;20091;-77
2022/08/02 08:35:33;;;;;;;0.93;0.68;;;18.40;99.90;;;;;;5047462;28;20485;-76
2022/08/02 08:37:59;;;;;;;3.63;0.80;;;18.50;99.90;;;;;;5028466;28;20127;-77
2022/08/02 08:40:25;;;;;;;6.05;1.00;;;18.70;99.90;;;;;;5026826;28;20045;-77
2022/08/02 08:42:50;;;;;;;2.88;1.27;;;18.60;99.90;;;;;;5046568;28;20043;-77
2022/08/02 08:45:16;;;;;;;3.20;0.80;;;18.70;99.90;;;;;;5045878;28;20049;-76
2022/08/02 08:47:43;;;;;;;4.25;0.85;;;18.90;99.90;;;;;;5042520;28;20068;-75
2022/08/02 08:50:12;;;;;;;2.15;0.68;;;18.90;99.90;;;;;;5043108;28;20362;-75
2022/08/02 08:52:44;;;;;;;3.75;0.65;;;19.00;99.90;;;;;;5043016;28;20041;-75
2022/08/02 08:55:12;;;;;;;5.07;0.70;;;19.00;99.90;;;;;;5032585;28;20037;-76
2022/08/02 08:57:42;;;;;;;7.70;5.20;;;19.10;99.90;;;;;;5043168;28;20049;-75
2022/08/02 09:00:12;;;;;;;1.35;0.80;;;19.20;99.90;;;;;;5025260;28;20108;-76
2022/08/02 09:02:40;;;;;;;5.47;1.00;;;19.30;99.90;;;;;;5042138;28;20060;-76
2022/08/02 09:05:09;;;;;;;2.92;0.90;;;19.40;99.90;;;;;;5043016;28;20124;-75
2022/08/02 09:07:35;;;;;;;2.97;0.88;;;19.50;99.90;;;;;;5027822;28;20049;-75
2022/08/02 09:10:21;;;;;;;1.63;0.43;;;19.60;99.90;;;;;;5048106;28;20048;-76
2022/08/02 09:13:07;;;;;;;2.00;0.52;;;19.70;99.90;;;;;;5042208;28;20046;-76
2022/08/02 09:15:33;;;;;;;1.80;0.80;;;19.80;99.90;;;;;;5050684;28;20106;-76
2022/08/02 09:17:59;;;;;;;3.03;0.55;;;19.90;99.90;;;;;;5024997;28;20469;-76
2022/08/02 09:20:24;;;;;;;4.13;0.52;;;20.00;99.90;;;;;;5033295;28;20095;-76
2022/08/02 09:23:10;;;;;;;4.05;0.60;;;20.10;99.90;;;;;;5047019;28;20044;-76
2022/08/02 09:25:37;;;;;;;3.30;0.68;;;20.20;99.90;;;;;;5043019;28;20046;-76
2022/08/02 09:28:05;;;;;;;1.73;0.50;;;20.50;99.90;;;;;;5025023;28;20051;-77
2022/08/02 09:30:32;;;;;;;1.48;0.75;;;20.40;99.90;;;;;;5049820;28;20507;-77
2022/08/02 09:32:58;;;;;;;2.00;0.57;;;20.50;99.90;;;;;;5048102;28;20547;-75
2022/08/02 09:35:35;;;;;;;2.08;0.70;;;20.70;99.90;;;;;;5045052;28;20049;-76
2022/08/02 09:38:19;;;;;;;1.88;0.50;;;20.80;99.90;;;;;;5041597;28;20504;-76
2022/08/02 09:40:46;;;;;;;1.02;0.77;;;20.90;99.90;;;;;;5042649;28;20045;-74
2022/08/02 09:43:11;;;;;;;2.00;0.65;;;20.90;99.90;;;;;;5048775;28;20567;-75
2022/08/02 09:45:37;;;;;;;2.30;0.80;;;21.10;99.90;;;;;;5027703;28;20132;-75
2022/08/02 09:48:07;;;;;;;2.10;0.75;;;21.10;99.90;;;;;;5045496;28;20045;-74
2022/08/02 09:50:41;;;;;;;1.35;0.70;;;21.20;99.90;;;;;;5026706;28;20064;-77
2022/08/02 09:53:12;;;;;;;1.95;0.90;;;21.30;99.90;;;;;;5028845;28;20053;-76
2022/08/02 09:55:39;;;;;;;1.17;0.70;;;21.40;99.90;;;;;;5050479;28;20052;-78
2022/08/02 09:58:20;;;;;;;2.17;0.88;;;21.50;99.90;;;;;;5041428;28;20041;-77
2022/08/02 10:01:00;;;;;;;2.63;0.93;;;21.60;99.90;;;;;;5041918;28;20038;-78
2022/08/02 10:03:26;;;;;;;2.08;0.70;;;21.80;99.90;;;;;;5049754;28;20057;-77
2022/08/02 10:05:54;;;;;;;4.28;1.20;;;21.90;99.90;;;;;;5041409;28;20563;-78
2022/08/02 10:08:20;;;;;;;2.30;1.15;;;22.00;99.90;;;;;;5042535;28;20041;-77
2022/08/02 10:10:46;;;;;;;3.28;1.30;;;22.10;99.90;;;;;;5032643;28;20551;-77
2022/08/02 10:13:14;;;;;;;1.35;1.20;;;22.30;99.90;;;;;;5023313;28;20041;-78
2022/08/02 10:15:40;;;;;;;3.78;1.60;;;22.20;99.90;;;;;;5049844;28;20377;-76
2022/08/02 10:18:06;;;;;;;3.58;1.40;;;22.20;99.90;;;;;;5040990;28;20047;-76
2022/08/02 10:20:40;;;;;;;2.17;1.52;;;22.30;99.90;;;;;;5042828;28;20145;-77
2022/08/02 10:23:08;;;;;;;2.88;1.10;;;22.40;99.90;;;;;;5027136;28;20040;-78
2022/08/02 10:25:36;;;;;;;4.93;1.63;;;22.50;99.90;;;;;;5044306;28;20437;-76
2022/08/02 10:28:04;;;;;;;6.63;2.30;;;22.60;99.90;;;;;;5045281;28;20388;-77
2022/08/02 10:30:31;;;;;;;4.85;1.95;;;22.70;99.90;;;;;;5025908;28;20048;-77
2022/08/02 10:32:59;;;;;;;7.57;1.98;;;22.80;99.90;;;;;;5027205;28;20408;-76
2022/08/02 10:35:25;;;;;;;4.07;2.13;;;22.80;99.90;;;;;;5044558;28;20041;-78
2022/08/02 10:37:59;;;;;;;5.70;2.30;;;22.90;99.90;;;;;;5023426;28;20052;-80
2022/08/02 10:40:45;;;;;;;4.97;2.00;;;23.00;99.90;;;;;;5040706;28;20046;-77
2022/08/02 10:43:12;;;;;;;4.72;2.35;;;23.10;99.90;;;;;;5044221;28;20040;-76
2022/08/02 10:45:38;;;;;;;5.50;2.05;;;23.10;99.90;;;;;;5043180;28;20050;-77
2022/08/02 10:48:08;;;;;;;7.93;2.20;;;23.20;99.90;;;;;;5022696;28;20041;-77
2022/08/02 10:50:53;;;;;;;3.22;1.92;;;23.20;99.90;;;;;;5041983;28;20391;-77
2022/08/02 10:53:23;;;;;;;4.65;2.17;;;23.30;99.90;;;;;;5026063;28;20072;-77
2022/08/02 10:55:49;;;;;;;3.75;1.80;;;23.30;99.90;;;;;;5045222;28;20037;-76
2022/08/02 10:58:20;;;;;;;5.63;1.92;;;23.40;99.90;;;;;;5044614;28;20120;-79
2022/08/02 11:00:46;;;;;;;5.32;1.88;;;23.50;99.90;;;;;;5041053;28;20088;-76
2022/08/02 11:03:44;;;;;;;4.57;2.10;;;23.50;99.90;;;;;;5045631;28;20088;-78
2022/08/02 11:06:12;;;;;;;3.53;2.03;;;23.50;99.90;;;;;;5003755;28;20456;-77
2022/08/02 11:08:38;;;;;;;6.05;2.35;;;23.40;99.90;;;;;;5042236;28;20041;-77
2022/08/02 11:11:10;;;;;;;4.80;2.38;;;23.50;99.90;;;;;;5040939;28;20045;-76
2022/08/02 11:13:58;;;;;;;2.50;1.50;;;23.50;99.90;;;;;;5041549;28;20045;-76
2022/08/02 11:17:04;;;;;;;3.63;1.55;;;23.40;99.90;;;;;;5030535;28;20037;-77
2022/08/02 11:19:31;;;;;;;4.55;2.53;;;23.40;99.90;;;;;;5040301;28;20124;-78
2022/08/02 11:22:09;;;;;;;3.47;2.10;;;23.80;99.90;;;;;;5042805;28;20396;-77
2022/08/02 11:24:39;;;;;;;4.65;1.95;;;23.40;99.90;;;;;;5043153;28;20044;-75
2022/08/02 11:27:07;;;;;;;4.25;1.67;;;23.50;99.90;;;;;;5027297;28;20111;-77
2022/08/02 11:29:41;;;;;;;2.70;1.98;;;23.60;99.90;;;;;;5042857;28;20051;-77
2022/08/02 11:32:36;;;;;;;2.35;2.15;;;23.60;99.90;;;;;;5025681;28;20128;-76
2022/08/02 11:35:02;;;;;;;2.45;1.80;;;23.70;99.90;;;;;;5018994;28;20049;-77
2022/08/02 11:37:32;;;;;;;3.60;2.10;;;23.80;99.90;;;;;;5039588;28;20490;-76
2022/08/02 11:39:57;;;;;;;3.00;2.42;;;23.80;99.90;;;;;;5043556;28;20033;-75
2022/08/02 11:42:41;;;;;;;4.88;2.63;;;23.80;99.90;;;;;;5044312;28;20048;-76
2022/08/02 11:45:08;;;;;;;4.28;2.78;;;23.90;99.90;;;;;;5040069;28;20125;-75
2022/08/02 11:47:45;;;;;;;12.73;2.25;;;24.00;99.90;;;;;;5039936;28;20450;-76
2022/08/02 11:50:10;;;;;;;5.85;1.90;;;24.10;99.90;;;;;;5043053;28;20072;-77
2022/08/02 11:52:37;;;;;;;3.08;2.38;;;24.30;99.90;;;;;;5042787;28;20076;-76
2022/08/02 11:55:04;;;;;;;5.38;3.00;;;24.30;99.90;;;;;;5043400;28;20044;-77
2022/08/02 11:57:30;;;;;;;7.68;3.05;;;24.30;99.90;;;;;;5042655;28;20041;-76
2022/08/02 11:59:56;;;;;;;5.72;3.70;;;24.50;99.90;;;;;;5043158;28;20438;-77
2022/08/02 12:02:24;;;;;;;12.30;5.57;;;24.50;99.90;;;;;;5025235;28;20052;-76
2022/08/02 12:04:58;;;;;;;6.03;5.43;;;24.50;99.90;;;;;;5042443;28;20054;-79
2022/08/02 12:07:32;;;;;;;6.57;4.60;;;24.40;99.90;;;;;;5042986;28;20532;-78
2022/08/02 12:10:05;;;;;;;7.75;4.88;;;24.40;99.90;;;;;;5025364;28;20033;-78
2022/08/02 12:12:31;;;;;;;6.55;5.25;;;24.40;99.90;;;;;;5041957;28;20087;-77
2022/08/02 12:14:57;;;;;;;7.35;4.72;;;24.30;99.90;;;;;;5039938;28;20749;-78
2022/08/02 12:20:12;;;;;;;6.43;4.05;;;24.20;99.90;;;;;;5039561;28;20456;-76
2022/08/02 12:22:38;;;;;;;6.40;3.85;;;24.10;99.90;;;;;;5047518;28;20423;-75
2022/08/02 12:25:21;;;;;;;7.25;3.83;;;24.10;99.90;;;;;;5039956;28;20061;-76
2022/08/02 12:27:47;;;;;;;3.13;2.63;;;24.10;99.90;;;;;;5047536;28;20088;-78
2022/08/02 12:30:15;;;;;;;3.17;2.88;;;24.10;99.90;;;;;;5039139;28;20064;-77
2022/08/02 12:32:41;;;;;;;4.78;2.60;;;24.10;99.90;;;;;;5028551;28;20227;-78
2022/08/02 12:35:21;;;;;;;5.82;3.00;;;24.10;99.90;;;;;;5039367;28;20040;-78
2022/08/02 12:37:48;;;;;;;7.10;3.30;;;24.10;99.90;;;;;;5029815;28;20381;-76
2022/08/02 12:40:24;;;;;;;5.93;4.32;;;24.00;99.90;;;;;;5038651;28;20056;-78
2022/08/02 12:42:54;;;;;;;5.57;3.88;;;24.00;99.90;;;;;;5029256;28;20080;-77
2022/08/02 12:45:19;;;;;;;4.75;3.60;;;23.90;99.90;;;;;;5039437;28;20092;-76
2022/08/02 12:47:48;;;;;;;5.90;4.85;;;23.80;99.90;;;;;;5039222;28;20516;-75
2022/08/02 12:50:16;;;;;;;6.57;4.53;;;23.80;99.90;;;;;;5025157;28;20064;-77
2022/08/02 12:52:42;;;;;;;8.63;4.05;;;23.80;99.90;;;;;;5023996;28;20045;-77
2022/08/02 12:55:24;;;;;;;6.47;3.75;;;23.70;99.90;;;;;;5047130;28;20087;-77
2022/08/02 12:58:02;;;;;;;6.72;3.72;;;23.60;99.90;;;;;;5047400;28;20053;-77
2022/08/02 13:00:34;;;;;;;7.90;4.03;;;23.60;99.90;;;;;;5027072;28;20037;-77
2022/08/02 13:02:59;;;;;;;3.58;3.10;;;23.70;99.90;;;;;;5039900;28;20102;-76